sensor_id;sensor_type;location;lat;lon;timestamp;P1;durP1;ratioP1;P2;durP2;ratioP2
3573;SDS011;1801;51.050;6.246;2022-12-10T00:00:10;67.50;;;27.47;;
3573;SDS011;1801;51.050;6.246;2022-12-10T00:02:36;78.43;;;27.98;;
3573;SDS011;1801;51.050;6.246;2022-12-10T00:05:01;88.33;;;28.97;;
3573;SDS011;1801;51.050;6.246;2022-12-10T00:07:26;99.93;;;28.63;;
3573;SDS011;1801;51.050;6.246;2022-12-10T00:09:51;107.00;;;27.93;;
3573;SDS011;1801;51.050;6.246;2022-12-10T00:12:17;70.57;;;26.10;;
3573;SDS011;1801;51.050;6.246;2022-12-10T00:14:42;73.70;;;25.60;;
3573;SDS011;1801;51.050;6.246;2022-12-10T00:17:07;75.43;;;26.87;;
3573;SDS011;1801;51.050;6.246;2022-12-10T00:19:32;76.57;;;25.20;;
3573;SDS011;1801;51.050;6.246;2022-12-10T00:21:57;67.53;;;25.47;;
3573;SDS011;1801;51.050;6.246;2022-12-10T00:24:23;72.17;;;26.13;;
3573;SDS011;1801;51.050;6.246;2022-12-10T00:26:48;72.53;;;26.50;;
3573;SDS011;1801;51.050;6.246;2022-12-10T00:29:13;87.30;;;28.80;;
3573;SDS011;1801;51.050;6.246;2022-12-10T00:31:38;76.07;;;27.83;;
3573;SDS011;1801;51.050;6.246;2022-12-10T00:34:04;91.20;;;29.83;;
3573;SDS011;1801;51.050;6.246;2022-12-10T00:36:31;85.45;;;27.13;;
3573;SDS011;1801;51.050;6.246;2022-12-10T00:38:57;69.70;;;25.90;;
3573;SDS011;1801;51.050;6.246;2022-12-10T00:41:22;105.80;;;29.77;;
3573;SDS011;1801;51.050;6.246;2022-12-10T00:43:47;115.43;;;31.17;;
3573;SDS011;1801;51.050;6.246;2022-12-10T00:46:13;87.00;;;29.57;;
3573;SDS011;1801;51.050;6.246;2022-12-10T00:48:39;76.28;;;25.38;;
3573;SDS011;1801;51.050;6.246;2022-12-10T00:51:06;88.43;;;27.10;;
3573;SDS011;1801;51.050;6.246;2022-12-10T00:53:32;75.30;;;26.85;;
3573;SDS011;1801;51.050;6.246;2022-12-10T00:55:57;97.50;;;27.57;;
3573;SDS011;1801;51.050;6.246;2022-12-10T00:58:23;98.00;;;28.80;;
3573;SDS011;1801;51.050;6.246;2022-12-10T01:00:49;92.17;;;29.00;;
3573;SDS011;1801;51.050;6.246;2022-12-10T01:03:14;97.60;;;30.80;;
3573;SDS011;1801;51.050;6.246;2022-12-10T01:05:40;85.50;;;24.60;;
3573;SDS011;1801;51.050;6.246;2022-12-10T01:08:05;85.63;;;28.50;;
3573;SDS011;1801;51.050;6.246;2022-12-10T01:10:30;86.20;;;27.57;;
3573;SDS011;1801;51.050;6.246;2022-12-10T01:12:55;104.60;;;31.60;;
3573;SDS011;1801;51.050;6.246;2022-12-10T01:15:21;78.30;;;27.10;;
3573;SDS011;1801;51.050;6.246;2022-12-10T01:17:46;85.53;;;28.20;;
3573;SDS011;1801;51.050;6.246;2022-12-10T01:20:12;80.63;;;27.70;;
3573;SDS011;1801;51.050;6.246;2022-12-10T01:22:37;84.30;;;28.63;;
3573;SDS011;1801;51.050;6.246;2022-12-10T01:25:03;90.30;;;26.80;;
3573;SDS011;1801;51.050;6.246;2022-12-10T01:27:28;103.40;;;26.20;;
3573;SDS011;1801;51.050;6.246;2022-12-10T01:29:53;83.37;;;27.77;;
3573;SDS011;1801;51.050;6.246;2022-12-10T01:32:18;80.23;;;28.63;;
3573;SDS011;1801;51.050;6.246;2022-12-10T01:34:43;73.13;;;25.10;;
3573;SDS011;1801;51.050;6.246;2022-12-10T01:37:09;95.70;;;28.50;;
3573;SDS011;1801;51.050;6.246;2022-12-10T01:39:34;90.13;;;27.93;;
3573;SDS011;1801;51.050;6.246;2022-12-10T01:41:59;81.10;;;25.00;;
3573;SDS011;1801;51.050;6.246;2022-12-10T01:46:51;112.57;;;26.70;;
3573;SDS011;1801;51.050;6.246;2022-12-10T01:49:18;109.35;;;28.52;;
3573;SDS011;1801;51.050;6.246;2022-12-10T01:51:44;127.38;;;25.38;;
3573;SDS011;1801;51.050;6.246;2022-12-10T01:54:11;117.18;;;26.17;;
3573;SDS011;1801;51.050;6.246;2022-12-10T01:56:44;184.05;;;31.00;;
3573;SDS011;1801;51.050;6.246;2022-12-10T01:59:10;154.20;;;27.33;;
3573;SDS011;1801;51.050;6.246;2022-12-10T02:01:38;286.83;;;33.07;;
3573;SDS011;1801;51.050;6.246;2022-12-10T02:06:43;184.67;;;30.60;;
3573;SDS011;1801;51.050;6.246;2022-12-10T02:14:19;139.73;;;28.17;;
3573;SDS011;1801;51.050;6.246;2022-12-10T02:17:28;186.23;;;33.38;;
3573;SDS011;1801;51.050;6.246;2022-12-10T02:22:34;180.35;;;33.17;;
3573;SDS011;1801;51.050;6.246;2022-12-10T02:25:01;149.02;;;30.70;;
3573;SDS011;1801;51.050;6.246;2022-12-10T02:27:31;145.55;;;28.75;;
3573;SDS011;1801;51.050;6.246;2022-12-10T02:29:58;126.50;;;28.30;;
3573;SDS011;1801;51.050;6.246;2022-12-10T02:32:25;140.13;;;27.50;;
3573;SDS011;1801;51.050;6.246;2022-12-10T02:34:53;144.38;;;28.98;;
3573;SDS011;1801;51.050;6.246;2022-12-10T02:37:24;121.70;;;28.27;;
3573;SDS011;1801;51.050;6.246;2022-12-10T02:39:52;150.98;;;32.00;;
3573;SDS011;1801;51.050;6.246;2022-12-10T02:42:18;133.50;;;33.55;;
3573;SDS011;1801;51.050;6.246;2022-12-10T02:44:44;139.27;;;32.80;;
3573;SDS011;1801;51.050;6.246;2022-12-10T02:47:11;107.60;;;29.20;;
3573;SDS011;1801;51.050;6.246;2022-12-10T02:49:37;132.15;;;37.25;;
3573;SDS011;1801;51.050;6.246;2022-12-10T02:52:12;167.07;;;33.45;;
3573;SDS011;1801;51.050;6.246;2022-12-10T02:54:39;139.93;;;32.47;;
3573;SDS011;1801;51.050;6.246;2022-12-10T02:57:16;176.50;;;31.48;;
3573;SDS011;1801;51.050;6.246;2022-12-10T03:02:12;129.65;;;31.67;;
3573;SDS011;1801;51.050;6.246;2022-12-10T03:04:46;138.70;;;36.28;;
3573;SDS011;1801;51.050;6.246;2022-12-10T03:07:35;147.10;;;37.22;;
3573;SDS011;1801;51.050;6.246;2022-12-10T03:10:02;161.00;;;35.45;;
3573;SDS011;1801;51.050;6.246;2022-12-10T03:12:29;153.93;;;38.72;;
3573;SDS011;1801;51.050;6.246;2022-12-10T03:14:59;158.05;;;38.97;;
3573;SDS011;1801;51.050;6.246;2022-12-10T03:17:26;160.15;;;37.53;;
3573;SDS011;1801;51.050;6.246;2022-12-10T03:19:52;163.70;;;42.67;;
3573;SDS011;1801;51.050;6.246;2022-12-10T03:22:18;153.15;;;41.85;;
3573;SDS011;1801;51.050;6.246;2022-12-10T03:24:44;184.63;;;39.85;;
3573;SDS011;1801;51.050;6.246;2022-12-10T03:27:11;178.90;;;38.23;;
3573;SDS011;1801;51.050;6.246;2022-12-10T03:29:38;169.65;;;37.97;;
3573;SDS011;1801;51.050;6.246;2022-12-10T03:32:04;149.80;;;40.38;;
3573;SDS011;1801;51.050;6.246;2022-12-10T03:34:29;150.93;;;38.73;;
3573;SDS011;1801;51.050;6.246;2022-12-10T03:36:55;167.87;;;39.17;;
3573;SDS011;1801;51.050;6.246;2022-12-10T03:39:20;204.70;;;38.73;;
3573;SDS011;1801;51.050;6.246;2022-12-10T03:41:46;184.70;;;43.53;;
3573;SDS011;1801;51.050;6.246;2022-12-10T03:44:11;173.43;;;40.27;;
3573;SDS011;1801;51.050;6.246;2022-12-10T03:46:36;131.60;;;39.23;;
3573;SDS011;1801;51.050;6.246;2022-12-10T03:49:02;169.47;;;38.93;;
3573;SDS011;1801;51.050;6.246;2022-12-10T03:51:27;154.17;;;41.57;;
3573;SDS011;1801;51.050;6.246;2022-12-10T03:53:53;196.33;;;40.20;;
3573;SDS011;1801;51.050;6.246;2022-12-10T03:56:18;150.83;;;41.37;;
3573;SDS011;1801;51.050;6.246;2022-12-10T03:58:44;197.43;;;47.60;;
3573;SDS011;1801;51.050;6.246;2022-12-10T04:01:09;176.83;;;43.50;;
3573;SDS011;1801;51.050;6.246;2022-12-10T04:03:35;166.60;;;45.50;;
3573;SDS011;1801;51.050;6.246;2022-12-10T04:06:02;176.25;;;41.97;;
3573;SDS011;1801;51.050;6.246;2022-12-10T04:08:27;169.30;;;43.85;;
3573;SDS011;1801;51.050;6.246;2022-12-10T04:10:52;158.13;;;39.87;;
3573;SDS011;1801;51.050;6.246;2022-12-10T04:13:17;186.60;;;43.30;;
3573;SDS011;1801;51.050;6.246;2022-12-10T04:16:01;149.20;;;41.40;;
3573;SDS011;1801;51.050;6.246;2022-12-10T04:18:45;184.48;;;43.08;;
3573;SDS011;1801;51.050;6.246;2022-12-10T04:21:11;170.93;;;41.30;;
3573;SDS011;1801;51.050;6.246;2022-12-10T04:23:54;172.38;;;39.15;;
3573;SDS011;1801;51.050;6.246;2022-12-10T04:26:38;167.27;;;37.78;;
3573;SDS011;1801;51.050;6.246;2022-12-10T04:29:25;164.55;;;37.17;;
3573;SDS011;1801;51.050;6.246;2022-12-10T04:31:50;177.70;;;40.63;;
3573;SDS011;1801;51.050;6.246;2022-12-10T04:34:15;140.30;;;40.90;;
3573;SDS011;1801;51.050;6.246;2022-12-10T04:36:41;157.37;;;38.93;;
3573;SDS011;1801;51.050;6.246;2022-12-10T04:39:06;143.67;;;36.50;;
3573;SDS011;1801;51.050;6.246;2022-12-10T04:41:31;155.07;;;41.10;;
3573;SDS011;1801;51.050;6.246;2022-12-10T04:43:57;157.47;;;38.03;;
3573;SDS011;1801;51.050;6.246;2022-12-10T04:46:22;143.90;;;37.20;;
3573;SDS011;1801;51.050;6.246;2022-12-10T04:48:47;161.63;;;37.73;;
3573;SDS011;1801;51.050;6.246;2022-12-10T04:51:12;153.20;;;36.77;;
3573;SDS011;1801;51.050;6.246;2022-12-10T04:53:37;138.97;;;37.40;;
3573;SDS011;1801;51.050;6.246;2022-12-10T04:56:03;162.97;;;42.53;;
3573;SDS011;1801;51.050;6.246;2022-12-10T04:58:30;160.10;;;38.25;;
3573;SDS011;1801;51.050;6.246;2022-12-10T05:01:06;140.13;;;37.13;;
3573;SDS011;1801;51.050;6.246;2022-12-10T05:03:31;156.65;;;37.88;;
3573;SDS011;1801;51.050;6.246;2022-12-10T05:06:00;141.27;;;37.57;;
3573;SDS011;1801;51.050;6.246;2022-12-10T05:08:26;161.60;;;38.70;;
3573;SDS011;1801;51.050;6.246;2022-12-10T05:10:51;147.17;;;36.37;;
3573;SDS011;1801;51.050;6.246;2022-12-10T05:13:16;177.07;;;40.00;;
3573;SDS011;1801;51.050;6.246;2022-12-10T05:15:41;135.47;;;35.53;;
3573;SDS011;1801;51.050;6.246;2022-12-10T05:18:07;155.03;;;36.40;;
3573;SDS011;1801;51.050;6.246;2022-12-10T05:20:32;137.07;;;36.53;;
3573;SDS011;1801;51.050;6.246;2022-12-10T05:22:57;137.70;;;34.70;;
3573;SDS011;1801;51.050;6.246;2022-12-10T05:25:41;120.13;;;33.38;;
3573;SDS011;1801;51.050;6.246;2022-12-10T05:28:25;123.75;;;32.22;;
3573;SDS011;1801;51.050;6.246;2022-12-10T05:30:50;108.00;;;30.17;;
3573;SDS011;1801;51.050;6.246;2022-12-10T05:33:16;96.83;;;26.90;;
3573;SDS011;1801;51.050;6.246;2022-12-10T05:35:41;113.27;;;31.97;;
3573;SDS011;1801;51.050;6.246;2022-12-10T05:38:06;112.00;;;32.10;;
3573;SDS011;1801;51.050;6.246;2022-12-10T05:40:36;102.07;;;31.77;;
3573;SDS011;1801;51.050;6.246;2022-12-10T05:43:01;107.85;;;28.02;;
3573;SDS011;1801;51.050;6.246;2022-12-10T05:45:26;119.10;;;29.10;;
3573;SDS011;1801;51.050;6.246;2022-12-10T05:47:51;111.20;;;26.47;;
3573;SDS011;1801;51.050;6.246;2022-12-10T05:50:17;111.13;;;31.00;;
3573;SDS011;1801;51.050;6.246;2022-12-10T05:52:42;112.83;;;32.00;;
3573;SDS011;1801;51.050;6.246;2022-12-10T05:55:07;99.93;;;30.80;;
3573;SDS011;1801;51.050;6.246;2022-12-10T05:57:33;103.23;;;30.63;;
3573;SDS011;1801;51.050;6.246;2022-12-10T05:59:58;116.00;;;33.20;;
3573;SDS011;1801;51.050;6.246;2022-12-10T06:02:23;103.47;;;30.90;;
3573;SDS011;1801;51.050;6.246;2022-12-10T06:04:56;108.20;;;33.58;;
3573;SDS011;1801;51.050;6.246;2022-12-10T06:07:21;95.67;;;31.80;;
3573;SDS011;1801;51.050;6.246;2022-12-10T06:09:46;92.53;;;24.97;;
3573;SDS011;1801;51.050;6.246;2022-12-10T06:12:11;92.73;;;27.07;;
3573;SDS011;1801;51.050;6.246;2022-12-10T06:14:37;87.07;;;23.70;;
3573;SDS011;1801;51.050;6.246;2022-12-10T06:17:02;79.33;;;25.77;;
3573;SDS011;1801;51.050;6.246;2022-12-10T06:19:27;71.07;;;21.97;;
3573;SDS011;1801;51.050;6.246;2022-12-10T06:21:52;98.87;;;26.37;;
3573;SDS011;1801;51.050;6.246;2022-12-10T06:24:17;86.27;;;26.30;;
3573;SDS011;1801;51.050;6.246;2022-12-10T06:26:43;73.27;;;23.67;;
3573;SDS011;1801;51.050;6.246;2022-12-10T06:29:08;94.67;;;27.67;;
3573;SDS011;1801;51.050;6.246;2022-12-10T06:31:34;87.97;;;27.40;;
3573;SDS011;1801;51.050;6.246;2022-12-10T06:33:59;70.37;;;22.87;;
3573;SDS011;1801;51.050;6.246;2022-12-10T06:36:24;78.17;;;22.53;;
3573;SDS011;1801;51.050;6.246;2022-12-10T06:38:49;81.93;;;21.83;;
3573;SDS011;1801;51.050;6.246;2022-12-10T06:41:16;56.47;;;19.07;;
3573;SDS011;1801;51.050;6.246;2022-12-10T06:43:42;59.83;;;20.45;;
3573;SDS011;1801;51.050;6.246;2022-12-10T06:46:08;77.57;;;22.00;;
3573;SDS011;1801;51.050;6.246;2022-12-10T06:48:34;67.57;;;18.50;;
3573;SDS011;1801;51.050;6.246;2022-12-10T06:50:59;61.93;;;18.30;;
3573;SDS011;1801;51.050;6.246;2022-12-10T06:53:24;50.63;;;17.60;;
3573;SDS011;1801;51.050;6.246;2022-12-10T06:55:50;39.63;;;12.57;;
3573;SDS011;1801;51.050;6.246;2022-12-10T06:58:15;50.27;;;15.00;;
3573;SDS011;1801;51.050;6.246;2022-12-10T07:00:40;51.80;;;15.47;;
3573;SDS011;1801;51.050;6.246;2022-12-10T07:03:05;49.10;;;15.17;;
3573;SDS011;1801;51.050;6.246;2022-12-10T07:05:30;38.17;;;12.87;;
3573;SDS011;1801;51.050;6.246;2022-12-10T07:07:56;48.40;;;17.30;;
3573;SDS011;1801;51.050;6.246;2022-12-10T07:10:21;53.83;;;17.23;;
3573;SDS011;1801;51.050;6.246;2022-12-10T07:12:46;56.93;;;14.83;;
3573;SDS011;1801;51.050;6.246;2022-12-10T07:15:11;50.43;;;15.67;;
3573;SDS011;1801;51.050;6.246;2022-12-10T07:17:37;52.73;;;16.80;;
3573;SDS011;1801;51.050;6.246;2022-12-10T07:20:02;50.67;;;15.47;;
3573;SDS011;1801;51.050;6.246;2022-12-10T07:22:27;52.60;;;16.60;;
3573;SDS011;1801;51.050;6.246;2022-12-10T07:24:52;59.43;;;19.37;;
3573;SDS011;1801;51.050;6.246;2022-12-10T07:27:18;70.10;;;19.93;;
3573;SDS011;1801;51.050;6.246;2022-12-10T07:29:43;73.77;;;19.50;;
3573;SDS011;1801;51.050;6.246;2022-12-10T07:32:08;57.70;;;18.53;;
3573;SDS011;1801;51.050;6.246;2022-12-10T07:34:34;82.00;;;20.83;;
3573;SDS011;1801;51.050;6.246;2022-12-10T07:36:59;78.80;;;19.93;;
3573;SDS011;1801;51.050;6.246;2022-12-10T07:39:24;61.93;;;19.83;;
3573;SDS011;1801;51.050;6.246;2022-12-10T07:41:50;79.50;;;23.37;;
3573;SDS011;1801;51.050;6.246;2022-12-10T07:44:17;72.85;;;21.55;;
3573;SDS011;1801;51.050;6.246;2022-12-10T07:46:43;74.15;;;23.55;;
3573;SDS011;1801;51.050;6.246;2022-12-10T07:49:09;70.43;;;21.17;;
3573;SDS011;1801;51.050;6.246;2022-12-10T07:51:34;71.03;;;21.23;;
3573;SDS011;1801;51.050;6.246;2022-12-10T07:53:59;65.87;;;19.57;;
3573;SDS011;1801;51.050;6.246;2022-12-10T07:56:24;83.03;;;20.60;;
3573;SDS011;1801;51.050;6.246;2022-12-10T07:58:50;72.37;;;21.77;;
3573;SDS011;1801;51.050;6.246;2022-12-10T08:01:16;74.60;;;20.80;;
3573;SDS011;1801;51.050;6.246;2022-12-10T08:03:42;73.25;;;19.50;;
3573;SDS011;1801;51.050;6.246;2022-12-10T08:06:09;80.50;;;24.90;;
3573;SDS011;1801;51.050;6.246;2022-12-10T08:08:34;72.15;;;21.27;;
3573;SDS011;1801;51.050;6.246;2022-12-10T08:11:00;73.97;;;21.27;;
3573;SDS011;1801;51.050;6.246;2022-12-10T08:13:26;69.70;;;18.60;;
3573;SDS011;1801;51.050;6.246;2022-12-10T08:15:51;63.17;;;18.47;;
3573;SDS011;1801;51.050;6.246;2022-12-10T08:18:16;67.43;;;22.43;;
3573;SDS011;1801;51.050;6.246;2022-12-10T08:20:41;65.63;;;20.50;;
3573;SDS011;1801;51.050;6.246;2022-12-10T08:23:06;71.10;;;22.77;;
3573;SDS011;1801;51.050;6.246;2022-12-10T08:25:31;68.53;;;20.67;;
3573;SDS011;1801;51.050;6.246;2022-12-10T08:27:57;58.53;;;17.77;;
3573;SDS011;1801;51.050;6.246;2022-12-10T08:30:24;71.55;;;19.60;;
3573;SDS011;1801;51.050;6.246;2022-12-10T08:32:49;73.10;;;23.17;;
3573;SDS011;1801;51.050;6.246;2022-12-10T08:35:15;71.20;;;18.63;;
3573;SDS011;1801;51.050;6.246;2022-12-10T08:37:40;57.40;;;19.60;;
3573;SDS011;1801;51.050;6.246;2022-12-10T08:40:06;74.20;;;22.90;;
3573;SDS011;1801;51.050;6.246;2022-12-10T08:42:31;68.23;;;22.07;;
3573;SDS011;1801;51.050;6.246;2022-12-10T08:44:57;83.87;;;24.70;;
3573;SDS011;1801;51.050;6.246;2022-12-10T08:47:22;62.73;;;21.37;;
3573;SDS011;1801;51.050;6.246;2022-12-10T08:49:47;62.60;;;21.27;;
3573;SDS011;1801;51.050;6.246;2022-12-10T08:52:12;66.53;;;20.40;;
3573;SDS011;1801;51.050;6.246;2022-12-10T08:54:37;58.77;;;20.53;;
3573;SDS011;1801;51.050;6.246;2022-12-10T08:57:02;65.03;;;21.03;;
3573;SDS011;1801;51.050;6.246;2022-12-10T08:59:28;57.73;;;19.60;;
3573;SDS011;1801;51.050;6.246;2022-12-10T09:01:53;68.20;;;21.20;;
3573;SDS011;1801;51.050;6.246;2022-12-10T09:04:18;75.27;;;22.57;;
3573;SDS011;1801;51.050;6.246;2022-12-10T09:06:43;71.27;;;22.77;;
3573;SDS011;1801;51.050;6.246;2022-12-10T09:09:09;53.20;;;19.53;;
3573;SDS011;1801;51.050;6.246;2022-12-10T09:11:34;80.23;;;23.77;;
3573;SDS011;1801;51.050;6.246;2022-12-10T09:13:59;51.93;;;19.00;;
3573;SDS011;1801;51.050;6.246;2022-12-10T09:16:32;66.63;;;21.97;;
3573;SDS011;1801;51.050;6.246;2022-12-10T09:18:58;68.57;;;22.23;;
3573;SDS011;1801;51.050;6.246;2022-12-10T09:21:23;54.70;;;17.73;;
3573;SDS011;1801;51.050;6.246;2022-12-10T09:23:49;51.20;;;17.60;;
3573;SDS011;1801;51.050;6.246;2022-12-10T09:26:15;54.03;;;16.80;;
3573;SDS011;1801;51.050;6.246;2022-12-10T09:28:41;63.78;;;18.95;;
3573;SDS011;1801;51.050;6.246;2022-12-10T09:31:06;50.90;;;17.97;;
3573;SDS011;1801;51.050;6.246;2022-12-10T09:33:32;60.53;;;16.70;;
3573;SDS011;1801;51.050;6.246;2022-12-10T09:35:57;60.37;;;17.70;;
3573;SDS011;1801;51.050;6.246;2022-12-10T09:38:23;60.40;;;18.90;;
3573;SDS011;1801;51.050;6.246;2022-12-10T09:41:01;40.23;;;14.17;;
3573;SDS011;1801;51.050;6.246;2022-12-10T09:48:32;53.88;;;16.30;;
3573;SDS011;1801;51.050;6.246;2022-12-10T09:51:02;54.00;;;18.13;;
3573;SDS011;1801;51.050;6.246;2022-12-10T09:53:30;58.20;;;17.30;;
3573;SDS011;1801;51.050;6.246;2022-12-10T09:55:56;58.07;;;17.23;;
3573;SDS011;1801;51.050;6.246;2022-12-10T09:58:23;62.78;;;18.40;;
3573;SDS011;1801;51.050;6.246;2022-12-10T10:00:50;58.92;;;18.27;;
3573;SDS011;1801;51.050;6.246;2022-12-10T10:03:16;56.58;;;19.52;;
3573;SDS011;1801;51.050;6.246;2022-12-10T10:05:59;67.70;;;25.10;;
3573;SDS011;1801;51.050;6.246;2022-12-10T10:08:29;80.22;;;24.50;;
3573;SDS011;1801;51.050;6.246;2022-12-10T10:10:56;69.18;;;19.27;;
3573;SDS011;1801;51.050;6.246;2022-12-10T10:15:49;76.70;;;24.20;;
3573;SDS011;1801;51.050;6.246;2022-12-10T10:18:35;74.47;;;20.73;;
3573;SDS011;1801;51.050;6.246;2022-12-10T10:21:07;59.28;;;16.92;;
3573;SDS011;1801;51.050;6.246;2022-12-10T10:23:36;66.95;;;18.20;;
3573;SDS011;1801;51.050;6.246;2022-12-10T10:26:02;78.30;;;21.53;;
3573;SDS011;1801;51.050;6.246;2022-12-10T10:28:27;73.57;;;21.50;;
3573;SDS011;1801;51.050;6.246;2022-12-10T10:30:52;61.00;;;19.50;;
3573;SDS011;1801;51.050;6.246;2022-12-10T10:33:19;79.47;;;23.85;;
3573;SDS011;1801;51.050;6.246;2022-12-10T10:35:46;88.27;;;22.93;;
3573;SDS011;1801;51.050;6.246;2022-12-10T10:38:22;80.32;;;24.58;;
3573;SDS011;1801;51.050;6.246;2022-12-10T10:40:52;78.85;;;21.38;;
3573;SDS011;1801;51.050;6.246;2022-12-10T10:43:24;70.85;;;23.05;;
3573;SDS011;1801;51.050;6.246;2022-12-10T10:48:22;92.53;;;26.45;;
3573;SDS011;1801;51.050;6.246;2022-12-10T10:50:49;76.53;;;22.13;;
3573;SDS011;1801;51.050;6.246;2022-12-10T10:53:31;85.97;;;22.77;;
3573;SDS011;1801;51.050;6.246;2022-12-10T10:55:59;87.95;;;24.40;;
3573;SDS011;1801;51.050;6.246;2022-12-10T10:58:26;96.80;;;24.65;;
3573;SDS011;1801;51.050;6.246;2022-12-10T11:00:59;84.90;;;23.80;;
3573;SDS011;1801;51.050;6.246;2022-12-10T11:03:25;91.03;;;24.73;;
3573;SDS011;1801;51.050;6.246;2022-12-10T11:05:51;83.30;;;26.27;;
3573;SDS011;1801;51.050;6.246;2022-12-10T11:08:17;97.90;;;24.70;;
3573;SDS011;1801;51.050;6.246;2022-12-10T11:11:01;92.75;;;22.75;;
3573;SDS011;1801;51.050;6.246;2022-12-10T11:13:29;81.03;;;22.98;;
3573;SDS011;1801;51.050;6.246;2022-12-10T11:18:36;72.57;;;20.20;;
3573;SDS011;1801;51.050;6.246;2022-12-10T11:21:07;75.03;;;21.52;;
3573;SDS011;1801;51.050;6.246;2022-12-10T11:24:04;92.28;;;22.65;;
3573;SDS011;1801;51.050;6.246;2022-12-10T11:26:51;63.72;;;20.58;;
3573;SDS011;1801;51.050;6.246;2022-12-10T11:29:28;95.10;;;23.73;;
3573;SDS011;1801;51.050;6.246;2022-12-10T11:37:46;75.45;;;19.80;;
3573;SDS011;1801;51.050;6.246;2022-12-10T11:40:14;71.68;;;21.83;;
3573;SDS011;1801;51.050;6.246;2022-12-10T11:45:13;70.87;;;21.90;;
3573;SDS011;1801;51.050;6.246;2022-12-10T11:52:44;64.88;;;21.90;;
3573;SDS011;1801;51.050;6.246;2022-12-10T11:57:52;75.20;;;21.77;;
3573;SDS011;1801;51.050;6.246;2022-12-10T12:00:26;54.63;;;17.92;;
3573;SDS011;1801;51.050;6.246;2022-12-10T12:05:40;66.85;;;21.52;;
3573;SDS011;1801;51.050;6.246;2022-12-10T12:08:23;62.63;;;20.77;;
3573;SDS011;1801;51.050;6.246;2022-12-10T12:16:19;71.73;;;20.37;;
3573;SDS011;1801;51.050;6.246;2022-12-10T12:21:14;65.53;;;19.40;;
3573;SDS011;1801;51.050;6.246;2022-12-10T12:23:43;63.03;;;18.70;;
3573;SDS011;1801;51.050;6.246;2022-12-10T12:26:13;70.25;;;20.20;;
3573;SDS011;1801;51.050;6.246;2022-12-10T12:28:47;83.80;;;19.70;;
3573;SDS011;1801;51.050;6.246;2022-12-10T12:31:20;71.38;;;19.45;;
3573;SDS011;1801;51.050;6.246;2022-12-10T12:36:14;84.87;;;23.07;;
3573;SDS011;1801;51.050;6.246;2022-12-10T12:41:17;93.68;;;24.98;;
3573;SDS011;1801;51.050;6.246;2022-12-10T12:43:55;87.70;;;24.42;;
3573;SDS011;1801;51.050;6.246;2022-12-10T12:49:24;72.22;;;24.25;;
3573;SDS011;1801;51.050;6.246;2022-12-10T12:54:40;66.00;;;21.58;;
3573;SDS011;1801;51.050;6.246;2022-12-10T13:04:21;81.63;;;26.30;;
3573;SDS011;1801;51.050;6.246;2022-12-10T13:09:31;80.20;;;20.70;;
3573;SDS011;1801;51.050;6.246;2022-12-10T13:14:31;76.13;;;22.88;;
3573;SDS011;1801;51.050;6.246;2022-12-10T13:19:39;63.92;;;20.55;;
3573;SDS011;1801;51.050;6.246;2022-12-10T13:22:06;62.83;;;22.02;;
3573;SDS011;1801;51.050;6.246;2022-12-10T13:32:15;76.43;;;23.23;;
3573;SDS011;1801;51.050;6.246;2022-12-10T13:34:41;74.03;;;24.08;;
3573;SDS011;1801;51.050;6.246;2022-12-10T13:37:14;69.60;;;22.60;;
3573;SDS011;1801;51.050;6.246;2022-12-10T13:39:48;54.58;;;18.95;;
3573;SDS011;1801;51.050;6.246;2022-12-10T13:44:59;71.95;;;22.40;;
3573;SDS011;1801;51.050;6.246;2022-12-10T13:47:26;84.70;;;22.55;;
3573;SDS011;1801;51.050;6.246;2022-12-10T13:49:59;84.32;;;20.73;;
3573;SDS011;1801;51.050;6.246;2022-12-10T13:52:26;74.90;;;22.63;;
3573;SDS011;1801;51.050;6.246;2022-12-10T13:55:02;93.57;;;31.40;;
3573;SDS011;1801;51.050;6.246;2022-12-10T13:57:37;78.40;;;25.17;;
3573;SDS011;1801;51.050;6.246;2022-12-10T14:00:10;98.38;;;25.45;;
3573;SDS011;1801;51.050;6.246;2022-12-10T14:02:45;66.68;;;21.63;;
3573;SDS011;1801;51.050;6.246;2022-12-10T14:05:20;75.63;;;24.48;;
3573;SDS011;1801;51.050;6.246;2022-12-10T14:07:48;83.35;;;24.92;;
3573;SDS011;1801;51.050;6.246;2022-12-10T14:10:15;89.97;;;25.77;;
3573;SDS011;1801;51.050;6.246;2022-12-10T14:12:42;80.28;;;26.88;;
3573;SDS011;1801;51.050;6.246;2022-12-10T14:15:18;80.70;;;24.65;;
3573;SDS011;1801;51.050;6.246;2022-12-10T14:17:44;74.38;;;25.38;;
3573;SDS011;1801;51.050;6.246;2022-12-10T14:20:23;89.10;;;22.37;;
3573;SDS011;1801;51.050;6.246;2022-12-10T14:22:50;74.65;;;22.20;;
3573;SDS011;1801;51.050;6.246;2022-12-10T14:25:16;82.30;;;25.85;;
3573;SDS011;1801;51.050;6.246;2022-12-10T14:27:42;89.60;;;26.83;;
3573;SDS011;1801;51.050;6.246;2022-12-10T14:30:19;73.20;;;25.08;;
3573;SDS011;1801;51.050;6.246;2022-12-10T14:32:45;72.07;;;19.83;;
3573;SDS011;1801;51.050;6.246;2022-12-10T14:35:15;66.33;;;21.23;;
3573;SDS011;1801;51.050;6.246;2022-12-10T14:37:42;64.90;;;19.55;;
3573;SDS011;1801;51.050;6.246;2022-12-10T14:40:08;58.75;;;19.13;;
3573;SDS011;1801;51.050;6.246;2022-12-10T14:42:33;75.33;;;22.67;;
3573;SDS011;1801;51.050;6.246;2022-12-10T14:44:59;72.00;;;20.73;;
3573;SDS011;1801;51.050;6.246;2022-12-10T14:47:25;88.90;;;21.13;;
3573;SDS011;1801;51.050;6.246;2022-12-10T14:49:53;68.17;;;22.70;;
3573;SDS011;1801;51.050;6.246;2022-12-10T14:52:20;85.50;;;23.60;;
3573;SDS011;1801;51.050;6.246;2022-12-10T14:54:45;83.38;;;23.83;;
3573;SDS011;1801;51.050;6.246;2022-12-10T14:57:18;76.00;;;22.17;;
3573;SDS011;1801;51.050;6.246;2022-12-10T14:59:46;108.53;;;30.58;;
3573;SDS011;1801;51.050;6.246;2022-12-10T15:02:16;129.90;;;32.17;;
3573;SDS011;1801;51.050;6.246;2022-12-10T15:04:43;87.63;;;27.85;;
3573;SDS011;1801;51.050;6.246;2022-12-10T15:07:14;95.55;;;27.15;;
3573;SDS011;1801;51.050;6.246;2022-12-10T15:09:41;76.22;;;23.98;;
3573;SDS011;1801;51.050;6.246;2022-12-10T15:12:15;93.77;;;25.23;;
3573;SDS011;1801;51.050;6.246;2022-12-10T15:14:44;73.80;;;20.70;;
3573;SDS011;1801;51.050;6.246;2022-12-10T15:19:53;69.43;;;21.85;;
3573;SDS011;1801;51.050;6.246;2022-12-10T15:22:18;77.47;;;24.27;;
3573;SDS011;1801;51.050;6.246;2022-12-10T15:24:44;74.53;;;23.07;;
3573;SDS011;1801;51.050;6.246;2022-12-10T15:29:41;77.68;;;23.80;;
3573;SDS011;1801;51.050;6.246;2022-12-10T15:32:10;91.00;;;21.27;;
3573;SDS011;1801;51.050;6.246;2022-12-10T15:34:43;81.68;;;22.95;;
3573;SDS011;1801;51.050;6.246;2022-12-10T15:37:16;72.63;;;22.60;;
3573;SDS011;1801;51.050;6.246;2022-12-10T15:39:52;113.03;;;34.63;;
3573;SDS011;1801;51.050;6.246;2022-12-10T15:42:51;88.55;;;27.05;;
3573;SDS011;1801;51.050;6.246;2022-12-10T15:45:18;76.50;;;23.50;;
3573;SDS011;1801;51.050;6.246;2022-12-10T15:47:44;78.53;;;21.45;;
3573;SDS011;1801;51.050;6.246;2022-12-10T15:50:09;75.53;;;21.03;;
3573;SDS011;1801;51.050;6.246;2022-12-10T15:52:35;74.43;;;23.20;;
3573;SDS011;1801;51.050;6.246;2022-12-10T15:55:00;100.03;;;25.37;;
3573;SDS011;1801;51.050;6.246;2022-12-10T15:59:52;93.27;;;23.17;;
3573;SDS011;1801;51.050;6.246;2022-12-10T16:04:50;80.70;;;21.30;;
3573;SDS011;1801;51.050;6.246;2022-12-10T16:07:16;99.47;;;27.17;;
3573;SDS011;1801;51.050;6.246;2022-12-10T16:09:42;91.32;;;21.42;;
3573;SDS011;1801;51.050;6.246;2022-12-10T16:12:11;88.07;;;24.60;;
3573;SDS011;1801;51.050;6.246;2022-12-10T16:14:36;61.42;;;19.40;;
3573;SDS011;1801;51.050;6.246;2022-12-10T16:17:01;93.83;;;26.90;;
3573;SDS011;1801;51.050;6.246;2022-12-10T16:19:27;89.93;;;23.60;;
3573;SDS011;1801;51.050;6.246;2022-12-10T16:21:52;83.60;;;23.80;;
3573;SDS011;1801;51.050;6.246;2022-12-10T16:24:17;114.47;;;34.03;;
3573;SDS011;1801;51.050;6.246;2022-12-10T16:26:42;98.80;;;28.27;;